createdAt,value
2018-04-29T00:00:23.337Z,10.80
2018-04-29T00:02:51.817Z,10.90
2018-04-29T00:05:20.308Z,11.00
2018-04-29T00:07:48.870Z,11.00
2018-04-29T00:10:17.360Z,11.10
2018-04-29T00:12:45.838Z,11.10
2018-04-29T00:15:14.345Z,11.20
2018-04-29T00:17:43.649Z,11.10
2018-04-29T00:20:12.264Z,11.00
2018-04-29T00:22:41.765Z,11.10
2018-04-29T00:25:10.300Z,11.00
2018-04-29T00:27:38.544Z,11.10
2018-04-29T00:30:07.867Z,11.10
2018-04-29T00:32:36.365Z,11.10
2018-04-29T00:35:04.681Z,11.20
2018-04-29T00:37:34.732Z,11.20
2018-04-29T00:40:03.674Z,11.10
2018-04-29T00:42:32.161Z,11.10
2018-04-29T00:45:00.408Z,11.30
2018-04-29T00:47:29.105Z,11.30
2018-04-29T00:49:57.681Z,11.20
2018-04-29T00:52:26.196Z,11.00
2018-04-29T00:54:54.689Z,11.00
2018-04-29T00:57:23.170Z,11.00
2018-04-29T00:59:51.664Z,11.20
2018-04-29T01:02:20.149Z,11.20
2018-04-29T01:04:49.177Z,11.20
2018-04-29T01:07:17.680Z,11.20
2018-04-29T01:09:46.270Z,11.20
2018-04-29T01:12:14.757Z,11.30
2018-04-29T01:14:43.233Z,11.20
2018-04-29T01:17:11.817Z,11.30
2018-04-29T01:19:40.396Z,11.30
2018-04-29T01:22:08.881Z,11.20
2018-04-29T01:24:37.470Z,11.20
2018-04-29T01:27:05.944Z,11.20
2018-04-29T01:29:34.628Z,11.20
2018-04-29T01:32:03.217Z,11.10
2018-04-29T01:34:31.688Z,11.00
2018-04-29T01:37:00.284Z,10.90
2018-04-29T01:39:28.449Z,10.90
2018-04-29T01:41:57.102Z,10.90
2018-04-29T01:44:26.349Z,10.90
2018-04-29T01:46:54.846Z,10.90
2018-04-29T01:49:23.317Z,11.00
2018-04-29T01:51:51.850Z,10.90
2018-04-29T01:54:20.328Z,10.80
2018-04-29T01:56:48.808Z,10.90
2018-04-29T01:59:17.304Z,10.90
2018-04-29T02:01:46.638Z,10.80
2018-04-29T02:04:15.135Z,10.70
2018-04-29T02:06:43.361Z,10.90
2018-04-29T02:09:12.766Z,10.60
2018-04-29T02:11:42.009Z,10.70
2018-04-29T02:14:10.508Z,10.60
2018-04-29T02:16:39.005Z,10.80
2018-04-29T02:19:07.617Z,10.60
2018-04-29T02:21:36.200Z,10.60
2018-04-29T02:24:04.472Z,10.50
2018-04-29T02:26:33.053Z,10.70
2018-04-29T02:29:01.596Z,10.50
2018-04-29T02:31:30.240Z,10.40
2018-04-29T02:33:58.785Z,10.30
2018-04-29T02:36:27.276Z,10.50
2018-04-29T02:38:56.635Z,10.70
2018-04-29T02:41:25.229Z,10.80
2018-04-29T02:43:53.398Z,10.70
2018-04-29T02:46:21.892Z,10.60
2018-04-29T02:48:50.381Z,10.60
2018-04-29T02:51:18.869Z,10.60
2018-04-29T02:53:47.526Z,10.30
2018-04-29T02:56:16.101Z,10.30
2018-04-29T02:58:44.760Z,10.30
2018-04-29T03:01:14.085Z,10.30
2018-04-29T03:03:43.411Z,10.00
2018-04-29T03:06:12.000Z,10.00
2018-04-29T03:08:40.479Z,9.90
2018-04-29T03:11:08.976Z,9.90
2018-04-29T03:13:37.524Z,9.80
2018-04-29T03:16:06.450Z,9.80
2018-04-29T03:18:35.045Z,9.60
2018-04-29T03:21:03.659Z,9.60
2018-04-29T03:23:33.021Z,9.70
2018-04-29T03:26:01.496Z,9.80
2018-04-29T03:28:29.971Z,9.80
2018-04-29T03:30:58.922Z,9.70
2018-04-29T03:33:27.810Z,9.60
2018-04-29T03:35:56.557Z,9.60
2018-04-29T03:38:25.181Z,9.60
2018-04-29T03:40:54.804Z,9.60
2018-04-29T03:43:23.277Z,9.50
2018-04-29T03:45:51.861Z,9.50
2018-04-29T03:48:20.461Z,9.40
2018-04-29T03:50:49.874Z,9.30
2018-04-29T03:53:19.316Z,9.30
2018-04-29T03:55:47.802Z,9.30
2018-04-29T03:58:37.189Z,9.30
2018-04-29T04:01:16.921Z,9.30
2018-04-29T04:03:50.726Z,9.10
2018-04-29T04:06:19.205Z,9.10
2018-04-29T04:08:47.695Z,9.00
2018-04-29T04:11:16.381Z,8.90
2018-04-29T04:13:44.965Z,8.90
2018-04-29T04:16:13.361Z,9.10
2018-04-29T04:18:41.914Z,9.00
2018-04-29T04:21:10.413Z,8.90
2018-04-29T04:23:39.046Z,8.80
2018-04-29T04:26:08.444Z,8.90
2018-04-29T04:28:37.881Z,8.90
2018-04-29T04:31:07.466Z,9.00
2018-04-29T04:33:36.712Z,9.00
2018-04-29T04:36:05.198Z,8.70
2018-04-29T04:38:33.796Z,8.80
2018-04-29T04:41:02.281Z,8.80
2018-04-29T04:43:30.765Z,8.90
2018-04-29T04:45:59.236Z,9.00
2018-04-29T04:48:27.632Z,8.90
2018-04-29T04:50:56.129Z,9.00
2018-04-29T04:53:24.620Z,8.80
2018-04-29T04:55:53.868Z,8.60
2018-04-29T04:58:22.329Z,8.50
2018-04-29T05:00:51.693Z,8.70
2018-04-29T05:03:21.875Z,8.60
2018-04-29T05:05:50.525Z,8.70
2018-04-29T05:08:19.004Z,8.70
2018-04-29T05:10:47.556Z,8.90
2018-04-29T05:13:15.821Z,8.90
2018-04-29T05:15:44.301Z,8.90
2018-04-29T05:18:12.876Z,9.20
2018-04-29T05:20:41.463Z,9.20
2018-04-29T05:23:09.969Z,9.20
2018-04-29T05:25:38.444Z,9.20
2018-04-29T05:28:06.797Z,9.20
2018-04-29T05:30:35.302Z,9.40
2018-04-29T05:33:03.792Z,9.40
2018-04-29T05:35:32.265Z,9.50
2018-04-29T05:38:00.753Z,9.50
2018-04-29T05:40:29.228Z,9.70
2018-04-29T05:42:57.729Z,9.70
2018-04-29T05:45:26.220Z,9.60
2018-04-29T05:47:55.009Z,9.90
2018-04-29T05:50:23.506Z,10.10
2018-04-29T05:52:52.749Z,10.30
2018-04-29T05:55:21.105Z,10.30
2018-04-29T05:57:50.348Z,10.40
2018-04-29T06:00:18.941Z,10.40
2018-04-29T06:02:47.416Z,10.60
2018-04-29T06:05:18.389Z,10.80
2018-04-29T06:07:48.377Z,10.80
2018-04-29T06:10:16.865Z,10.80
2018-04-29T06:12:45.361Z,11.10
2018-04-29T06:15:13.849Z,11.10
2018-04-29T06:17:44.049Z,11.20
2018-04-29T06:20:12.541Z,11.30
2018-04-29T06:22:41.032Z,11.50
2018-04-29T06:25:09.513Z,11.90
2018-04-29T06:27:38.138Z,12.00
2018-04-29T06:30:06.764Z,12.20
2018-04-29T06:32:35.234Z,12.40
2018-04-29T06:35:04.136Z,12.40
2018-04-29T06:37:32.652Z,12.70
2018-04-29T06:40:01.942Z,12.90
2018-04-29T06:42:30.209Z,13.00
2018-04-29T06:44:58.807Z,13.00
2018-04-29T06:47:27.365Z,12.90
2018-04-29T06:49:55.866Z,13.00
2018-04-29T06:52:24.360Z,12.80
2018-04-29T06:54:52.854Z,12.70
2018-04-29T06:57:21.405Z,12.70
2018-04-29T06:59:49.890Z,13.10
2018-04-29T07:02:18.362Z,13.20
2018-04-29T07:04:46.858Z,13.00
2018-04-29T07:07:15.353Z,13.00
2018-04-29T07:09:43.834Z,12.80
2018-04-29T07:12:12.321Z,13.10
2018-04-29T07:14:40.916Z,13.30
2018-04-29T07:17:09.813Z,13.50
2018-04-29T07:19:38.301Z,13.80
2018-04-29T07:22:06.795Z,13.80
2018-04-29T07:24:36.097Z,14.00
2018-04-29T07:27:05.374Z,14.00
2018-04-29T07:29:33.864Z,14.00
2018-04-29T07:32:02.337Z,14.20
2018-04-29T07:34:30.835Z,14.30
2018-04-29T07:36:59.330Z,14.20
2018-04-29T07:39:28.725Z,14.20
2018-04-29T07:41:57.235Z,14.20
2018-04-29T07:44:25.734Z,14.40
2018-04-29T07:46:54.201Z,14.60
2018-04-29T07:49:22.705Z,14.60
2018-04-29T07:51:52.114Z,14.90
2018-04-29T07:54:20.447Z,15.00
2018-04-29T07:56:49.703Z,15.10
2018-04-29T07:59:18.202Z,15.10
2018-04-29T08:01:46.807Z,15.20
2018-04-29T08:04:15.461Z,15.20
2018-04-29T08:06:44.005Z,15.30
2018-04-29T08:09:12.718Z,15.30
2018-04-29T08:11:41.208Z,15.40
2018-04-29T08:14:09.696Z,15.50
2018-04-29T08:16:38.181Z,15.70
2018-04-29T08:19:06.701Z,15.60
2018-04-29T08:21:35.197Z,15.80
2018-04-29T08:24:04.078Z,16.00
